sensor_id;sensor_type;location;lat;lon;timestamp;P1;durP1;ratioP1;P2;durP2;ratioP2
18649;SDS011;9454;53.516;10.478;2022-11-18T00:00:28;10.32;;;5.03;;
18649;SDS011;9454;53.516;10.478;2022-11-18T00:03:31;10.57;;;5.20;;
18649;SDS011;9454;53.516;10.478;2022-11-18T00:06:34;11.70;;;4.85;;
18649;SDS011;9454;53.516;10.478;2022-11-18T00:09:38;9.10;;;5.00;;
18649;SDS011;9454;53.516;10.478;2022-11-18T00:12:41;9.10;;;5.10;;
18649;SDS011;9454;53.516;10.478;2022-11-18T00:16:01;15.57;;;5.72;;
18649;SDS011;9454;53.516;10.478;2022-11-18T00:19:04;12.80;;;6.60;;
18649;SDS011;9454;53.516;10.478;2022-11-18T00:22:08;12.65;;;6.13;;
18649;SDS011;9454;53.516;10.478;2022-11-18T00:25:14;17.77;;;5.78;;
18649;SDS011;9454;53.516;10.478;2022-11-18T00:28:17;12.65;;;6.05;;
18649;SDS011;9454;53.516;10.478;2022-11-18T00:31:20;14.15;;;5.82;;
18649;SDS011;9454;53.516;10.478;2022-11-18T00:34:22;13.27;;;4.85;;
18649;SDS011;9454;53.516;10.478;2022-11-18T00:37:26;9.23;;;5.20;;
18649;SDS011;9454;53.516;10.478;2022-11-18T00:40:30;11.27;;;6.30;;
18649;SDS011;9454;53.516;10.478;2022-11-18T00:43:33;14.27;;;6.13;;
18649;SDS011;9454;53.516;10.478;2022-11-18T00:46:35;8.43;;;4.88;;
18649;SDS011;9454;53.516;10.478;2022-11-18T00:49:38;14.45;;;6.28;;
18649;SDS011;9454;53.516;10.478;2022-11-18T00:52:40;10.60;;;5.07;;
18649;SDS011;9454;53.516;10.478;2022-11-18T00:55:45;36.70;;;7.40;;
18649;SDS011;9454;53.516;10.478;2022-11-18T00:58:47;18.95;;;6.95;;
18649;SDS011;9454;53.516;10.478;2022-11-18T01:01:51;10.13;;;5.65;;
18649;SDS011;9454;53.516;10.478;2022-11-18T01:04:54;13.07;;;5.90;;
18649;SDS011;9454;53.516;10.478;2022-11-18T01:07:56;13.70;;;6.97;;
18649;SDS011;9454;53.516;10.478;2022-11-18T01:11:01;13.48;;;7.10;;
18649;SDS011;9454;53.516;10.478;2022-11-18T01:14:17;14.40;;;7.72;;
18649;SDS011;9454;53.516;10.478;2022-11-18T01:17:20;13.50;;;6.90;;
18649;SDS011;9454;53.516;10.478;2022-11-18T01:20:23;10.48;;;5.55;;
18649;SDS011;9454;53.516;10.478;2022-11-18T01:23:26;12.93;;;6.47;;
18649;SDS011;9454;53.516;10.478;2022-11-18T01:26:30;11.05;;;5.40;;
18649;SDS011;9454;53.516;10.478;2022-11-18T01:29:33;12.13;;;6.50;;
18649;SDS011;9454;53.516;10.478;2022-11-18T01:32:36;12.93;;;6.43;;
18649;SDS011;9454;53.516;10.478;2022-11-18T01:35:40;10.77;;;5.72;;
18649;SDS011;9454;53.516;10.478;2022-11-18T01:38:43;10.30;;;4.72;;
18649;SDS011;9454;53.516;10.478;2022-11-18T01:41:47;10.57;;;5.97;;
18649;SDS011;9454;53.516;10.478;2022-11-18T01:44:52;14.00;;;6.22;;
18649;SDS011;9454;53.516;10.478;2022-11-18T01:47:59;12.60;;;6.05;;
18649;SDS011;9454;53.516;10.478;2022-11-18T01:51:04;10.02;;;5.40;;
18649;SDS011;9454;53.516;10.478;2022-11-18T01:54:08;12.52;;;6.95;;
18649;SDS011;9454;53.516;10.478;2022-11-18T01:57:15;9.63;;;5.78;;
18649;SDS011;9454;53.516;10.478;2022-11-18T02:00:19;10.00;;;5.45;;
18649;SDS011;9454;53.516;10.478;2022-11-18T02:03:22;11.20;;;5.65;;
18649;SDS011;9454;53.516;10.478;2022-11-18T02:06:27;11.68;;;6.28;;
18649;SDS011;9454;53.516;10.478;2022-11-18T02:09:30;10.30;;;6.00;;
18649;SDS011;9454;53.516;10.478;2022-11-18T02:12:34;11.75;;;6.57;;
18649;SDS011;9454;53.516;10.478;2022-11-18T02:15:40;15.55;;;6.25;;
18649;SDS011;9454;53.516;10.478;2022-11-18T02:18:52;9.60;;;5.18;;
18649;SDS011;9454;53.516;10.478;2022-11-18T02:21:58;10.07;;;5.50;;
18649;SDS011;9454;53.516;10.478;2022-11-18T02:25:07;11.00;;;5.00;;
18649;SDS011;9454;53.516;10.478;2022-11-18T02:28:26;10.45;;;5.55;;
18649;SDS011;9454;53.516;10.478;2022-11-18T02:31:36;14.45;;;5.40;;
18649;SDS011;9454;53.516;10.478;2022-11-18T02:34:45;10.55;;;5.65;;
18649;SDS011;9454;53.516;10.478;2022-11-18T02:37:51;12.43;;;6.20;;
18649;SDS011;9454;53.516;10.478;2022-11-18T02:40:57;10.02;;;6.03;;
18649;SDS011;9454;53.516;10.478;2022-11-18T02:44:02;11.90;;;5.68;;
18649;SDS011;9454;53.516;10.478;2022-11-18T02:47:08;10.45;;;5.47;;
18649;SDS011;9454;53.516;10.478;2022-11-18T02:50:14;12.73;;;5.72;;
18649;SDS011;9454;53.516;10.478;2022-11-18T02:53:18;11.77;;;6.03;;
18649;SDS011;9454;53.516;10.478;2022-11-18T02:56:22;7.55;;;5.00;;
18649;SDS011;9454;53.516;10.478;2022-11-18T02:59:26;11.25;;;5.05;;
18649;SDS011;9454;53.516;10.478;2022-11-18T03:02:37;9.40;;;4.15;;
18649;SDS011;9454;53.516;10.478;2022-11-18T03:05:41;7.55;;;4.40;;
18649;SDS011;9454;53.516;10.478;2022-11-18T03:08:49;9.48;;;5.07;;
18649;SDS011;9454;53.516;10.478;2022-11-18T03:11:55;8.40;;;4.85;;
18649;SDS011;9454;53.516;10.478;2022-11-18T03:15:02;11.82;;;4.72;;
18649;SDS011;9454;53.516;10.478;2022-11-18T03:18:13;8.98;;;4.78;;
18649;SDS011;9454;53.516;10.478;2022-11-18T03:21:18;8.70;;;2.92;;
18649;SDS011;9454;53.516;10.478;2022-11-18T03:24:23;9.10;;;4.50;;
18649;SDS011;9454;53.516;10.478;2022-11-18T03:27:29;6.88;;;4.13;;
18649;SDS011;9454;53.516;10.478;2022-11-18T03:30:33;7.97;;;4.78;;
18649;SDS011;9454;53.516;10.478;2022-11-18T03:33:39;5.88;;;3.72;;
18649;SDS011;9454;53.516;10.478;2022-11-18T03:36:44;7.85;;;3.60;;
18649;SDS011;9454;53.516;10.478;2022-11-18T03:39:52;9.63;;;4.75;;
18649;SDS011;9454;53.516;10.478;2022-11-18T03:42:57;7.93;;;4.80;;
18649;SDS011;9454;53.516;10.478;2022-11-18T03:46:05;10.95;;;4.70;;
18649;SDS011;9454;53.516;10.478;2022-11-18T03:49:11;7.70;;;4.82;;
18649;SDS011;9454;53.516;10.478;2022-11-18T03:52:30;8.00;;;4.60;;
18649;SDS011;9454;53.516;10.478;2022-11-18T03:55:35;6.63;;;3.40;;
18649;SDS011;9454;53.516;10.478;2022-11-18T03:58:40;8.43;;;5.07;;
18649;SDS011;9454;53.516;10.478;2022-11-18T04:01:44;11.63;;;4.90;;
18649;SDS011;9454;53.516;10.478;2022-11-18T04:04:51;10.93;;;5.40;;
18649;SDS011;9454;53.516;10.478;2022-11-18T04:07:55;9.05;;;4.85;;
18649;SDS011;9454;53.516;10.478;2022-11-18T04:11:00;9.05;;;5.13;;
18649;SDS011;9454;53.516;10.478;2022-11-18T04:14:03;7.20;;;3.55;;
18649;SDS011;9454;53.516;10.478;2022-11-18T04:17:10;10.75;;;5.50;;
18649;SDS011;9454;53.516;10.478;2022-11-18T04:20:16;9.10;;;5.70;;
18649;SDS011;9454;53.516;10.478;2022-11-18T04:23:19;7.85;;;4.30;;
18649;SDS011;9454;53.516;10.478;2022-11-18T04:26:22;10.80;;;5.53;;
18649;SDS011;9454;53.516;10.478;2022-11-18T04:29:28;9.05;;;4.20;;
18649;SDS011;9454;53.516;10.478;2022-11-18T04:32:32;9.68;;;5.68;;
18649;SDS011;9454;53.516;10.478;2022-11-18T04:35:36;6.65;;;3.75;;
18649;SDS011;9454;53.516;10.478;2022-11-18T04:38:39;10.52;;;5.88;;
18649;SDS011;9454;53.516;10.478;2022-11-18T04:41:42;12.48;;;6.43;;
18649;SDS011;9454;53.516;10.478;2022-11-18T04:44:56;12.20;;;6.35;;
18649;SDS011;9454;53.516;10.478;2022-11-18T04:47:59;7.75;;;3.15;;
18649;SDS011;9454;53.516;10.478;2022-11-18T04:51:05;11.70;;;5.00;;
18649;SDS011;9454;53.516;10.478;2022-11-18T04:54:08;10.63;;;5.55;;
18649;SDS011;9454;53.516;10.478;2022-11-18T04:57:11;6.80;;;4.05;;
18649;SDS011;9454;53.516;10.478;2022-11-18T05:00:14;12.85;;;5.60;;
18649;SDS011;9454;53.516;10.478;2022-11-18T05:03:18;10.18;;;5.82;;
18649;SDS011;9454;53.516;10.478;2022-11-18T05:06:22;10.60;;;5.30;;
18649;SDS011;9454;53.516;10.478;2022-11-18T05:09:25;8.30;;;5.05;;
18649;SDS011;9454;53.516;10.478;2022-11-18T05:12:32;9.25;;;5.90;;
18649;SDS011;9454;53.516;10.478;2022-11-18T05:15:50;11.50;;;4.97;;
18649;SDS011;9454;53.516;10.478;2022-11-18T05:18:52;13.18;;;6.70;;
18649;SDS011;9454;53.516;10.478;2022-11-18T05:21:57;14.05;;;6.15;;
18649;SDS011;9454;53.516;10.478;2022-11-18T05:25:00;14.38;;;6.40;;
18649;SDS011;9454;53.516;10.478;2022-11-18T05:28:03;11.80;;;5.45;;
18649;SDS011;9454;53.516;10.478;2022-11-18T05:31:06;15.98;;;6.95;;
18649;SDS011;9454;53.516;10.478;2022-11-18T05:34:09;14.05;;;6.60;;
18649;SDS011;9454;53.516;10.478;2022-11-18T05:37:13;12.00;;;6.00;;
18649;SDS011;9454;53.516;10.478;2022-11-18T05:40:16;11.13;;;5.10;;
18649;SDS011;9454;53.516;10.478;2022-11-18T05:43:19;11.35;;;5.70;;
18649;SDS011;9454;53.516;10.478;2022-11-18T05:46:22;17.25;;;7.00;;
18649;SDS011;9454;53.516;10.478;2022-11-18T05:49:24;12.93;;;6.28;;
18649;SDS011;9454;53.516;10.478;2022-11-18T05:52:28;11.43;;;6.13;;
18649;SDS011;9454;53.516;10.478;2022-11-18T05:55:32;5.80;;;2.53;;
18649;SDS011;9454;53.516;10.478;2022-11-18T05:58:37;16.10;;;7.43;;
18649;SDS011;9454;53.516;10.478;2022-11-18T06:01:40;12.02;;;5.18;;
18649;SDS011;9454;53.516;10.478;2022-11-18T06:04:45;13.48;;;7.30;;
18649;SDS011;9454;53.516;10.478;2022-11-18T06:07:49;13.85;;;6.43;;
18649;SDS011;9454;53.516;10.478;2022-11-18T06:10:52;13.23;;;6.80;;
18649;SDS011;9454;53.516;10.478;2022-11-18T06:13:55;13.68;;;7.53;;
18649;SDS011;9454;53.516;10.478;2022-11-18T06:17:00;12.38;;;6.20;;
18649;SDS011;9454;53.516;10.478;2022-11-18T06:20:05;20.55;;;7.70;;
18649;SDS011;9454;53.516;10.478;2022-11-18T06:23:09;12.50;;;6.38;;
18649;SDS011;9454;53.516;10.478;2022-11-18T06:26:12;12.43;;;6.00;;
18649;SDS011;9454;53.516;10.478;2022-11-18T06:29:15;9.68;;;4.43;;
18649;SDS011;9454;53.516;10.478;2022-11-18T06:32:24;19.08;;;7.38;;
18649;SDS011;9454;53.516;10.478;2022-11-18T06:35:28;10.90;;;5.72;;
18649;SDS011;9454;53.516;10.478;2022-11-18T06:38:32;13.00;;;6.88;;
18649;SDS011;9454;53.516;10.478;2022-11-18T06:41:34;16.85;;;7.47;;
18649;SDS011;9454;53.516;10.478;2022-11-18T06:44:37;15.13;;;6.97;;
18649;SDS011;9454;53.516;10.478;2022-11-18T06:47:40;15.73;;;6.65;;
18649;SDS011;9454;53.516;10.478;2022-11-18T06:50:42;13.50;;;6.00;;
18649;SDS011;9454;53.516;10.478;2022-11-18T06:53:47;17.15;;;7.07;;
18649;SDS011;9454;53.516;10.478;2022-11-18T06:56:50;12.00;;;6.95;;
18649;SDS011;9454;53.516;10.478;2022-11-18T06:59:52;14.82;;;7.15;;
18649;SDS011;9454;53.516;10.478;2022-11-18T07:03:02;16.17;;;6.13;;
18649;SDS011;9454;53.516;10.478;2022-11-18T07:06:05;6.38;;;3.38;;
18649;SDS011;9454;53.516;10.478;2022-11-18T07:09:09;13.05;;;6.07;;
18649;SDS011;9454;53.516;10.478;2022-11-18T07:12:12;15.25;;;6.57;;
18649;SDS011;9454;53.516;10.478;2022-11-18T07:15:15;14.75;;;6.03;;
18649;SDS011;9454;53.516;10.478;2022-11-18T07:18:18;10.85;;;5.00;;
18649;SDS011;9454;53.516;10.478;2022-11-18T07:21:21;7.70;;;2.10;;
18649;SDS011;9454;53.516;10.478;2022-11-18T07:24:25;11.25;;;5.00;;
18649;SDS011;9454;53.516;10.478;2022-11-18T07:27:28;2.10;;;1.85;;
18649;SDS011;9454;53.516;10.478;2022-11-18T07:30:31;6.22;;;4.07;;
18649;SDS011;9454;53.516;10.478;2022-11-18T07:33:34;9.75;;;4.75;;
18649;SDS011;9454;53.516;10.478;2022-11-18T07:36:37;3.70;;;1.85;;
18649;SDS011;9454;53.516;10.478;2022-11-18T07:39:41;7.40;;;3.78;;
18649;SDS011;9454;53.516;10.478;2022-11-18T07:42:43;5.38;;;2.40;;
18649;SDS011;9454;53.516;10.478;2022-11-18T07:45:58;8.32;;;2.90;;
18649;SDS011;9454;53.516;10.478;2022-11-18T07:49:02;9.77;;;4.50;;
18649;SDS011;9454;53.516;10.478;2022-11-18T07:52:05;6.18;;;3.13;;
18649;SDS011;9454;53.516;10.478;2022-11-18T07:55:10;5.65;;;2.97;;
18649;SDS011;9454;53.516;10.478;2022-11-18T07:58:23;10.52;;;3.55;;
18649;SDS011;9454;53.516;10.478;2022-11-18T08:01:39;10.13;;;4.88;;
18649;SDS011;9454;53.516;10.478;2022-11-18T08:04:42;10.38;;;4.60;;
18649;SDS011;9454;53.516;10.478;2022-11-18T08:07:45;5.60;;;2.28;;
18649;SDS011;9454;53.516;10.478;2022-11-18T08:10:49;9.88;;;5.28;;
18649;SDS011;9454;53.516;10.478;2022-11-18T08:13:52;8.18;;;4.60;;
18649;SDS011;9454;53.516;10.478;2022-11-18T08:16:54;9.57;;;2.42;;
18649;SDS011;9454;53.516;10.478;2022-11-18T08:19:57;6.85;;;4.00;;
18649;SDS011;9454;53.516;10.478;2022-11-18T08:23:00;11.93;;;6.35;;
18649;SDS011;9454;53.516;10.478;2022-11-18T08:26:05;13.27;;;5.82;;
18649;SDS011;9454;53.516;10.478;2022-11-18T08:29:14;8.15;;;4.40;;
18649;SDS011;9454;53.516;10.478;2022-11-18T08:32:27;9.90;;;5.40;;
18649;SDS011;9454;53.516;10.478;2022-11-18T08:35:30;13.35;;;6.30;;
18649;SDS011;9454;53.516;10.478;2022-11-18T08:38:35;11.68;;;6.22;;
18649;SDS011;9454;53.516;10.478;2022-11-18T08:41:41;8.05;;;3.55;;
18649;SDS011;9454;53.516;10.478;2022-11-18T08:44:44;11.18;;;5.60;;
18649;SDS011;9454;53.516;10.478;2022-11-18T08:47:51;14.57;;;6.63;;
18649;SDS011;9454;53.516;10.478;2022-11-18T08:50:55;14.60;;;6.60;;
18649;SDS011;9454;53.516;10.478;2022-11-18T08:53:59;11.35;;;5.88;;
18649;SDS011;9454;53.516;10.478;2022-11-18T08:57:07;15.10;;;7.13;;
18649;SDS011;9454;53.516;10.478;2022-11-18T09:00:10;4.85;;;2.53;;
18649;SDS011;9454;53.516;10.478;2022-11-18T09:03:18;12.52;;;6.25;;
18649;SDS011;9454;53.516;10.478;2022-11-18T09:06:21;13.40;;;6.32;;
18649;SDS011;9454;53.516;10.478;2022-11-18T09:09:27;17.35;;;5.25;;
18649;SDS011;9454;53.516;10.478;2022-11-18T09:12:33;12.32;;;5.50;;
18649;SDS011;9454;53.516;10.478;2022-11-18T09:15:36;19.23;;;6.68;;
18649;SDS011;9454;53.516;10.478;2022-11-18T09:18:39;13.85;;;5.93;;
18649;SDS011;9454;53.516;10.478;2022-11-18T09:21:45;11.18;;;5.18;;
18649;SDS011;9454;53.516;10.478;2022-11-18T09:24:48;13.73;;;5.65;;
18649;SDS011;9454;53.516;10.478;2022-11-18T09:27:53;12.23;;;5.60;;
18649;SDS011;9454;53.516;10.478;2022-11-18T09:30:56;15.30;;;6.20;;
18649;SDS011;9454;53.516;10.478;2022-11-18T09:33:59;9.32;;;4.05;;
18649;SDS011;9454;53.516;10.478;2022-11-18T09:37:02;12.63;;;6.18;;
18649;SDS011;9454;53.516;10.478;2022-11-18T09:40:12;9.30;;;4.75;;
18649;SDS011;9454;53.516;10.478;2022-11-18T09:43:18;9.98;;;5.47;;
18649;SDS011;9454;53.516;10.478;2022-11-18T09:46:25;10.75;;;4.55;;
18649;SDS011;9454;53.516;10.478;2022-11-18T09:49:33;11.38;;;4.85;;
18649;SDS011;9454;53.516;10.478;2022-11-18T09:52:38;8.13;;;3.80;;
18649;SDS011;9454;53.516;10.478;2022-11-18T09:55:42;7.82;;;4.38;;
18649;SDS011;9454;53.516;10.478;2022-11-18T09:58:47;11.23;;;4.57;;
18649;SDS011;9454;53.516;10.478;2022-11-18T10:01:50;7.75;;;4.03;;
18649;SDS011;9454;53.516;10.478;2022-11-18T10:04:57;8.80;;;4.53;;
18649;SDS011;9454;53.516;10.478;2022-11-18T10:08:07;9.38;;;4.97;;
18649;SDS011;9454;53.516;10.478;2022-11-18T10:11:16;9.75;;;5.30;;
18649;SDS011;9454;53.516;10.478;2022-11-18T10:14:36;9.82;;;4.47;;
18649;SDS011;9454;53.516;10.478;2022-11-18T10:17:57;10.13;;;4.50;;
18649;SDS011;9454;53.516;10.478;2022-11-18T10:21:04;8.38;;;3.95;;
18649;SDS011;9454;53.516;10.478;2022-11-18T10:24:15;11.00;;;4.25;;
18649;SDS011;9454;53.516;10.478;2022-11-18T10:27:21;9.68;;;4.07;;
18649;SDS011;9454;53.516;10.478;2022-11-18T10:30:29;6.75;;;3.92;;
18649;SDS011;9454;53.516;10.478;2022-11-18T10:33:36;6.65;;;4.20;;
18649;SDS011;9454;53.516;10.478;2022-11-18T10:36:57;8.05;;;3.85;;
18649;SDS011;9454;53.516;10.478;2022-11-18T10:40:02;7.70;;;3.13;;
18649;SDS011;9454;53.516;10.478;2022-11-18T10:43:10;8.18;;;3.97;;
18649;SDS011;9454;53.516;10.478;2022-11-18T10:46:26;7.80;;;4.10;;
18649;SDS011;9454;53.516;10.478;2022-11-18T10:49:29;8.65;;;3.97;;
18649;SDS011;9454;53.516;10.478;2022-11-18T10:52:50;7.45;;;3.53;;
18649;SDS011;9454;53.516;10.478;2022-11-18T10:55:56;6.47;;;3.33;;
18649;SDS011;9454;53.516;10.478;2022-11-18T10:58:59;8.88;;;4.07;;
18649;SDS011;9454;53.516;10.478;2022-11-18T11:02:10;9.05;;;4.05;;
18649;SDS011;9454;53.516;10.478;2022-11-18T11:05:16;7.93;;;2.80;;
18649;SDS011;9454;53.516;10.478;2022-11-18T11:08:22;10.07;;;4.28;;
18649;SDS011;9454;53.516;10.478;2022-11-18T11:11:41;5.03;;;2.65;;
18649;SDS011;9454;53.516;10.478;2022-11-18T11:14:46;7.75;;;3.58;;
18649;SDS011;9454;53.516;10.478;2022-11-18T11:17:55;7.93;;;3.70;;
18649;SDS011;9454;53.516;10.478;2022-11-18T11:21:13;9.02;;;3.63;;
18649;SDS011;9454;53.516;10.478;2022-11-18T11:24:16;10.85;;;4.35;;
18649;SDS011;9454;53.516;10.478;2022-11-18T11:27:27;10.48;;;4.38;;
18649;SDS011;9454;53.516;10.478;2022-11-18T11:31:05;9.88;;;3.60;;
18649;SDS011;9454;53.516;10.478;2022-11-18T11:34:15;10.68;;;4.78;;
18649;SDS011;9454;53.516;10.478;2022-11-18T11:37:21;7.15;;;2.95;;
18649;SDS011;9454;53.516;10.478;2022-11-18T11:40:28;6.03;;;3.05;;
18649;SDS011;9454;53.516;10.478;2022-11-18T11:43:41;10.27;;;4.15;;
18649;SDS011;9454;53.516;10.478;2022-11-18T11:46:53;12.80;;;4.85;;
18649;SDS011;9454;53.516;10.478;2022-11-18T11:50:27;5.80;;;3.10;;
18649;SDS011;9454;53.516;10.478;2022-11-18T11:53:44;10.73;;;4.55;;
18649;SDS011;9454;53.516;10.478;2022-11-18T11:56:48;6.80;;;3.53;;
18649;SDS011;9454;53.516;10.478;2022-11-18T11:59:56;8.30;;;2.75;;
18649;SDS011;9454;53.516;10.478;2022-11-18T12:03:03;9.27;;;3.45;;
18649;SDS011;9454;53.516;10.478;2022-11-18T12:06:12;5.45;;;3.10;;
18649;SDS011;9454;53.516;10.478;2022-11-18T12:09:16;8.93;;;3.92;;
18649;SDS011;9454;53.516;10.478;2022-11-18T12:12:21;9.40;;;3.80;;
18649;SDS011;9454;53.516;10.478;2022-11-18T12:15:41;6.53;;;2.90;;
18649;SDS011;9454;53.516;10.478;2022-11-18T12:18:46;6.03;;;2.78;;
18649;SDS011;9454;53.516;10.478;2022-11-18T12:21:52;6.10;;;2.80;;
18649;SDS011;9454;53.516;10.478;2022-11-18T12:24:55;5.18;;;2.05;;
18649;SDS011;9454;53.516;10.478;2022-11-18T12:27:58;7.22;;;2.35;;
18649;SDS011;9454;53.516;10.478;2022-11-18T12:34:33;8.35;;;2.05;;
18649;SDS011;9454;53.516;10.478;2022-11-18T12:41:09;4.72;;;2.20;;
18649;SDS011;9454;53.516;10.478;2022-11-18T12:44:46;3.22;;;1.73;;
18649;SDS011;9454;53.516;10.478;2022-11-18T12:47:56;3.53;;;2.05;;
18649;SDS011;9454;53.516;10.478;2022-11-18T12:51:37;3.70;;;1.52;;
18649;SDS011;9454;53.516;10.478;2022-11-18T12:54:48;7.10;;;1.90;;
18649;SDS011;9454;53.516;10.478;2022-11-18T12:57:52;3.45;;;1.73;;
18649;SDS011;9454;53.516;10.478;2022-11-18T13:01:05;3.25;;;2.03;;
18649;SDS011;9454;53.516;10.478;2022-11-18T13:04:16;1.90;;;1.40;;
18649;SDS011;9454;53.516;10.478;2022-11-18T13:07:26;2.38;;;1.55;;
18649;SDS011;9454;53.516;10.478;2022-11-18T13:10:47;6.53;;;2.00;;
18649;SDS011;9454;53.516;10.478;2022-11-18T13:13:57;3.72;;;1.70;;
18649;SDS011;9454;53.516;10.478;2022-11-18T13:17:24;2.47;;;1.30;;
18649;SDS011;9454;53.516;10.478;2022-11-18T13:20:55;3.13;;;1.70;;
18649;SDS011;9454;53.516;10.478;2022-11-18T13:24:20;5.00;;;1.90;;
18649;SDS011;9454;53.516;10.478;2022-11-18T13:27:35;3.55;;;2.05;;
18649;SDS011;9454;53.516;10.478;2022-11-18T13:30:49;3.38;;;1.60;;
18649;SDS011;9454;53.516;10.478;2022-11-18T13:33:59;6.82;;;2.22;;
18649;SDS011;9454;53.516;10.478;2022-11-18T13:37:02;5.07;;;2.08;;
18649;SDS011;9454;53.516;10.478;2022-11-18T13:40:13;4.97;;;1.73;;
18649;SDS011;9454;53.516;10.478;2022-11-18T13:47:10;2.72;;;1.85;;
18649;SDS011;9454;53.516;10.478;2022-11-18T13:53:27;2.63;;;1.40;;
18649;SDS011;9454;53.516;10.478;2022-11-18T13:56:33;2.75;;;1.67;;
18649;SDS011;9454;53.516;10.478;2022-11-18T14:00:19;3.53;;;2.05;;
18649;SDS011;9454;53.516;10.478;2022-11-18T14:03:48;3.72;;;1.92;;
18649;SDS011;9454;53.516;10.478;2022-11-18T14:14:09;4.75;;;2.63;;
18649;SDS011;9454;53.516;10.478;2022-11-18T14:17:14;2.25;;;1.48;;
18649;SDS011;9454;53.516;10.478;2022-11-18T14:20:19;3.05;;;1.20;;
18649;SDS011;9454;53.516;10.478;2022-11-18T14:23:25;3.03;;;1.45;;
18649;SDS011;9454;53.516;10.478;2022-11-18T14:26:29;2.45;;;1.25;;
18649;SDS011;9454;53.516;10.478;2022-11-18T14:29:32;1.48;;;1.05;;
18649;SDS011;9454;53.516;10.478;2022-11-18T14:32:35;1.73;;;1.10;;
18649;SDS011;9454;53.516;10.478;2022-11-18T14:35:42;2.00;;;1.10;;
18649;SDS011;9454;53.516;10.478;2022-11-18T14:38:46;1.98;;;1.17;;
18649;SDS011;9454;53.516;10.478;2022-11-18T14:42:12;1.23;;;0.98;;
18649;SDS011;9454;53.516;10.478;2022-11-18T14:45:15;1.33;;;1.02;;
18649;SDS011;9454;53.516;10.478;2022-11-18T14:48:19;1.70;;;0.77;;
18649;SDS011;9454;53.516;10.478;2022-11-18T14:51:24;1.85;;;1.00;;
18649;SDS011;9454;53.516;10.478;2022-11-18T14:54:29;1.33;;;0.85;;
18649;SDS011;9454;53.516;10.478;2022-11-18T14:57:48;2.65;;;1.15;;
18649;SDS011;9454;53.516;10.478;2022-11-18T15:00:57;1.80;;;1.02;;
18649;SDS011;9454;53.516;10.478;2022-11-18T15:04:00;3.00;;;1.30;;
18649;SDS011;9454;53.516;10.478;2022-11-18T15:07:09;13.35;;;4.18;;
18649;SDS011;9454;53.516;10.478;2022-11-18T15:10:22;10.13;;;4.60;;
18649;SDS011;9454;53.516;10.478;2022-11-18T15:13:25;20.20;;;5.90;;
18649;SDS011;9454;53.516;10.478;2022-11-18T15:16:32;16.85;;;6.95;;
18649;SDS011;9454;53.516;10.478;2022-11-18T15:19:37;13.30;;;5.47;;
18649;SDS011;9454;53.516;10.478;2022-11-18T15:22:42;12.50;;;5.40;;
18649;SDS011;9454;53.516;10.478;2022-11-18T15:25:45;11.75;;;4.97;;
18649;SDS011;9454;53.516;10.478;2022-11-18T15:28:50;6.13;;;3.75;;
18649;SDS011;9454;53.516;10.478;2022-11-18T15:31:56;6.75;;;3.58;;
18649;SDS011;9454;53.516;10.478;2022-11-18T15:34:59;6.30;;;2.38;;
18649;SDS011;9454;53.516;10.478;2022-11-18T15:38:08;4.75;;;2.90;;
18649;SDS011;9454;53.516;10.478;2022-11-18T15:41:16;2.15;;;1.55;;
18649;SDS011;9454;53.516;10.478;2022-11-18T15:44:22;3.72;;;1.50;;
18649;SDS011;9454;53.516;10.478;2022-11-18T15:47:29;1.27;;;0.90;;
18649;SDS011;9454;53.516;10.478;2022-11-18T15:50:39;3.35;;;1.08;;
18649;SDS011;9454;53.516;10.478;2022-11-18T15:57:52;2.53;;;1.08;;
18649;SDS011;9454;53.516;10.478;2022-11-18T16:05:02;1.92;;;0.80;;
18649;SDS011;9454;53.516;10.478;2022-11-18T16:08:25;1.45;;;0.95;;
18649;SDS011;9454;53.516;10.478;2022-11-18T16:12:55;1.67;;;0.95;;
18649;SDS011;9454;53.516;10.478;2022-11-18T16:16:07;1.85;;;1.20;;
18649;SDS011;9454;53.516;10.478;2022-11-18T16:19:15;1.45;;;1.05;;
18649;SDS011;9454;53.516;10.478;2022-11-18T16:22:19;2.10;;;1.27;;
18649;SDS011;9454;53.516;10.478;2022-11-18T16:25:22;2.95;;;1.63;;
18649;SDS011;9454;53.516;10.478;2022-11-18T16:28:27;1.67;;;1.30;;
18649;SDS011;9454;53.516;10.478;2022-11-18T16:31:30;3.45;;;1.13;;
18649;SDS011;9454;53.516;10.478;2022-11-18T16:34:56;2.08;;;1.38;;
18649;SDS011;9454;53.516;10.478;2022-11-18T16:38:20;1.00;;;0.80;;
18649;SDS011;9454;53.516;10.478;2022-11-18T16:41:29;1.23;;;0.90;;
18649;SDS011;9454;53.516;10.478;2022-11-18T16:44:43;3.40;;;1.20;;
18649;SDS011;9454;53.516;10.478;2022-11-18T16:47:46;2.53;;;1.50;;
18649;SDS011;9454;53.516;10.478;2022-11-18T16:50:58;6.50;;;1.80;;
18649;SDS011;9454;53.516;10.478;2022-11-18T16:54:36;1.92;;;1.30;;
18649;SDS011;9454;53.516;10.478;2022-11-18T16:57:46;2.67;;;1.60;;
18649;SDS011;9454;53.516;10.478;2022-11-18T17:00:59;2.47;;;1.55;;
18649;SDS011;9454;53.516;10.478;2022-11-18T17:04:54;2.90;;;1.38;;
18649;SDS011;9454;53.516;10.478;2022-11-18T17:11:37;2.95;;;1.88;;
18649;SDS011;9454;53.516;10.478;2022-11-18T17:14:39;7.35;;;2.75;;
18649;SDS011;9454;53.516;10.478;2022-11-18T17:17:44;2.60;;;1.77;;
18649;SDS011;9454;53.516;10.478;2022-11-18T17:20:46;6.03;;;2.25;;
18649;SDS011;9454;53.516;10.478;2022-11-18T17:23:55;6.13;;;2.55;;
18649;SDS011;9454;53.516;10.478;2022-11-18T17:27:25;5.38;;;2.03;;
18649;SDS011;9454;53.516;10.478;2022-11-18T17:30:40;2.92;;;1.85;;
18649;SDS011;9454;53.516;10.478;2022-11-18T17:33:52;6.90;;;2.88;;
18649;SDS011;9454;53.516;10.478;2022-11-18T17:36:56;8.65;;;4.07;;
18649;SDS011;9454;53.516;10.478;2022-11-18T17:40:07;7.95;;;4.28;;
18649;SDS011;9454;53.516;10.478;2022-11-18T17:43:10;5.15;;;2.08;;
18649;SDS011;9454;53.516;10.478;2022-11-18T17:46:15;5.80;;;2.80;;
18649;SDS011;9454;53.516;10.478;2022-11-18T17:49:20;5.72;;;2.75;;
18649;SDS011;9454;53.516;10.478;2022-11-18T17:52:23;6.78;;;2.50;;
18649;SDS011;9454;53.516;10.478;2022-11-18T17:55:26;5.68;;;2.08;;
18649;SDS011;9454;53.516;10.478;2022-11-18T17:58:29;7.15;;;1.60;;
18649;SDS011;9454;53.516;10.478;2022-11-18T18:01:32;2.67;;;1.75;;
18649;SDS011;9454;53.516;10.478;2022-11-18T18:04:37;2.45;;;1.67;;
18649;SDS011;9454;53.516;10.478;2022-11-18T18:07:40;2.53;;;1.88;;
18649;SDS011;9454;53.516;10.478;2022-11-18T18:10:43;4.07;;;1.95;;
18649;SDS011;9454;53.516;10.478;2022-11-18T18:13:46;4.10;;;2.25;;
18649;SDS011;9454;53.516;10.478;2022-11-18T18:17:12;2.78;;;1.83;;
18649;SDS011;9454;53.516;10.478;2022-11-18T18:20:20;6.13;;;2.13;;
18649;SDS011;9454;53.516;10.478;2022-11-18T18:23:24;4.05;;;2.45;;
18649;SDS011;9454;53.516;10.478;2022-11-18T18:26:34;4.38;;;2.22;;
18649;SDS011;9454;53.516;10.478;2022-11-18T18:30:08;5.95;;;2.20;;
18649;SDS011;9454;53.516;10.478;2022-11-18T18:33:11;3.55;;;2.03;;
18649;SDS011;9454;53.516;10.478;2022-11-18T18:36:16;8.48;;;2.50;;
18649;SDS011;9454;53.516;10.478;2022-11-18T18:39:23;8.23;;;3.08;;
18649;SDS011;9454;53.516;10.478;2022-11-18T18:42:26;6.20;;;3.45;;
18649;SDS011;9454;53.516;10.478;2022-11-18T18:45:35;3.90;;;2.50;;
18649;SDS011;9454;53.516;10.478;2022-11-18T18:49:00;8.93;;;4.45;;
18649;SDS011;9454;53.516;10.478;2022-11-18T18:52:11;12.00;;;4.40;;
18649;SDS011;9454;53.516;10.478;2022-11-18T18:55:33;7.55;;;3.22;;
18649;SDS011;9454;53.516;10.478;2022-11-18T18:58:45;5.03;;;2.22;;
18649;SDS011;9454;53.516;10.478;2022-11-18T19:01:48;7.57;;;2.70;;
18649;SDS011;9454;53.516;10.478;2022-11-18T19:04:51;4.07;;;2.42;;
18649;SDS011;9454;53.516;10.478;2022-11-18T19:08:02;5.82;;;2.92;;
18649;SDS011;9454;53.516;10.478;2022-11-18T19:11:05;7.07;;;3.50;;
18649;SDS011;9454;53.516;10.478;2022-11-18T19:14:08;8.40;;;3.78;;
18649;SDS011;9454;53.516;10.478;2022-11-18T19:17:17;8.77;;;4.43;;